createdAt,value
2018-07-09T00:00:28.751Z,0.00
2018-07-09T00:01:28.744Z,0.00
2018-07-09T00:02:28.662Z,0.00
2018-07-09T00:03:28.644Z,0.00
2018-07-09T00:04:28.578Z,0.00
2018-07-09T00:05:28.536Z,0.00
2018-07-09T00:06:28.505Z,0.00
2018-07-09T00:07:28.450Z,0.00
2018-07-09T00:08:28.397Z,0.00
2018-07-09T00:09:28.351Z,0.00
2018-07-09T00:10:28.306Z,0.00
2018-07-09T00:11:28.277Z,0.00
2018-07-09T00:12:28.211Z,0.00
2018-07-09T00:13:28.200Z,0.00
2018-07-09T00:14:28.122Z,0.00
2018-07-09T00:15:28.104Z,0.00
2018-07-09T00:16:28.029Z,0.00
2018-07-09T00:17:28.006Z,0.00
2018-07-09T00:18:27.954Z,0.00
2018-07-09T00:19:27.890Z,0.00
2018-07-09T00:20:27.860Z,0.00
2018-07-09T00:21:27.830Z,0.00
2018-07-09T00:22:27.766Z,0.00
2018-07-09T00:23:27.739Z,0.00
2018-07-09T00:24:27.676Z,0.00
2018-07-09T00:25:27.631Z,0.00
2018-07-09T00:26:27.584Z,0.00
2018-07-09T00:27:27.560Z,0.00
2018-07-09T00:28:27.492Z,0.00
2018-07-09T00:29:27.439Z,0.00
2018-07-09T00:30:27.418Z,0.00
2018-07-09T00:31:27.366Z,0.00
2018-07-09T00:32:27.310Z,0.00
2018-07-09T00:33:27.278Z,0.00
2018-07-09T00:34:27.465Z,0.00
2018-07-09T00:35:27.167Z,0.00
2018-07-09T00:36:27.122Z,0.00
2018-07-09T00:37:27.077Z,0.00
2018-07-09T00:38:27.057Z,0.00
2018-07-09T00:39:27.006Z,0.00
2018-07-09T00:40:26.979Z,0.00
2018-07-09T00:41:26.901Z,0.00
2018-07-09T00:42:26.855Z,0.00
2018-07-09T00:43:26.818Z,0.00
2018-07-09T00:44:26.779Z,0.00
2018-07-09T00:45:26.715Z,0.00
2018-07-09T00:46:26.681Z,0.00
2018-07-09T00:47:26.656Z,0.00
2018-07-09T00:48:26.598Z,0.00
2018-07-09T00:49:26.535Z,0.00
2018-07-09T00:50:26.493Z,0.00
2018-07-09T00:51:26.455Z,0.00
2018-07-09T00:52:26.414Z,0.00
2018-07-09T00:53:26.356Z,0.00
2018-07-09T00:54:26.325Z,0.00
2018-07-09T00:55:26.268Z,0.00
2018-07-09T00:56:26.233Z,0.00
2018-07-09T00:57:26.187Z,0.00
2018-07-09T00:58:26.126Z,0.00
2018-07-09T00:59:26.090Z,0.00
2018-07-09T01:00:26.063Z,0.00
2018-07-09T01:01:26.004Z,0.00
2018-07-09T01:02:25.946Z,0.00
2018-07-09T01:03:25.906Z,0.00
2018-07-09T01:04:25.857Z,0.00
2018-07-09T01:05:25.821Z,0.00
2018-07-09T01:06:25.784Z,0.00
2018-07-09T01:07:25.749Z,0.00
2018-07-09T01:08:25.694Z,0.00
2018-07-09T01:09:25.645Z,0.00
2018-07-09T01:10:25.584Z,0.00
2018-07-09T01:11:25.544Z,0.00
2018-07-09T01:12:25.504Z,0.00
2018-07-09T01:13:25.459Z,0.00
2018-07-09T01:14:25.405Z,0.00
2018-07-09T01:15:25.390Z,0.00
2018-07-09T01:16:25.316Z,0.00
2018-07-09T01:17:25.266Z,0.00
2018-07-09T01:18:25.247Z,0.00
2018-07-09T01:19:25.175Z,0.00
2018-07-09T01:20:25.180Z,0.00
2018-07-09T01:21:40.915Z,0.00
2018-07-09T01:22:40.828Z,0.00
2018-07-09T01:23:40.798Z,0.00
2018-07-09T01:24:40.737Z,0.00
2018-07-09T01:25:40.688Z,0.00
2018-07-09T01:26:40.635Z,0.00
2018-07-09T01:27:40.595Z,0.00
2018-07-09T01:28:40.576Z,0.00
2018-07-09T01:29:40.511Z,0.00
2018-07-09T01:30:40.485Z,0.00
2018-07-09T01:31:40.404Z,0.00
2018-07-09T01:32:40.377Z,0.00
2018-07-09T01:33:40.323Z,0.00
2018-07-09T01:34:40.291Z,0.00
2018-07-09T01:35:40.253Z,0.00
2018-07-09T01:36:40.184Z,0.00
2018-07-09T01:37:40.165Z,0.00
2018-07-09T01:38:40.096Z,0.00
2018-07-09T01:39:40.045Z,0.00
2018-07-09T01:40:40.008Z,0.00
2018-07-09T01:41:39.949Z,0.00
2018-07-09T01:42:39.910Z,0.00
2018-07-09T01:43:39.872Z,0.00
2018-07-09T01:44:39.817Z,0.00
2018-07-09T01:45:39.777Z,0.00
2018-07-09T01:46:39.749Z,0.00
2018-07-09T01:47:39.694Z,0.00
2018-07-09T01:48:39.633Z,0.00
2018-07-09T01:49:39.609Z,0.00
2018-07-09T01:50:39.543Z,0.00
2018-07-09T01:51:39.515Z,0.00
2018-07-09T01:52:39.448Z,0.00
2018-07-09T01:53:39.414Z,0.00
2018-07-09T01:54:39.353Z,0.00
2018-07-09T01:55:39.342Z,0.00
2018-07-09T01:56:39.280Z,0.00
2018-07-09T01:57:39.220Z,0.00
2018-07-09T01:58:39.206Z,0.00
2018-07-09T01:59:39.135Z,0.00
2018-07-09T02:00:39.120Z,0.00
2018-07-09T02:01:39.065Z,0.00
2018-07-09T02:02:39.008Z,0.00
2018-07-09T02:03:38.947Z,0.00
2018-07-09T02:04:38.901Z,0.00
2018-07-09T02:05:38.857Z,0.00
2018-07-09T02:06:38.829Z,0.00
2018-07-09T02:07:38.770Z,0.00
2018-07-09T02:08:38.735Z,0.00
2018-07-09T02:09:38.675Z,0.00
2018-07-09T02:10:38.627Z,0.00
2018-07-09T02:11:38.584Z,0.00
2018-07-09T02:12:38.537Z,0.00
2018-07-09T02:13:38.505Z,0.00
2018-07-09T02:14:38.450Z,0.00
2018-07-09T02:15:38.420Z,0.00
2018-07-09T02:16:38.371Z,0.00
2018-07-09T02:17:38.326Z,0.00
2018-07-09T02:18:38.276Z,0.00
2018-07-09T02:19:38.231Z,0.00
2018-07-09T02:20:38.308Z,0.00
2018-07-09T02:21:38.133Z,0.00
2018-07-09T02:22:38.103Z,0.00
2018-07-09T02:23:38.041Z,0.00
2018-07-09T02:24:38.005Z,0.00
2018-07-09T02:25:37.986Z,0.00
2018-07-09T02:26:37.902Z,0.00
2018-07-09T02:27:37.877Z,0.00
2018-07-09T02:28:37.813Z,0.00
2018-07-09T02:29:37.801Z,0.00
2018-07-09T02:30:37.729Z,0.00
2018-07-09T02:31:37.677Z,0.00
2018-07-09T02:32:37.668Z,0.00
2018-07-09T02:33:37.615Z,0.00
2018-07-09T02:34:37.566Z,0.00
2018-07-09T02:35:37.530Z,0.00
2018-07-09T02:36:37.445Z,0.00
2018-07-09T02:37:37.453Z,0.00
2018-07-09T02:38:37.352Z,0.00
2018-07-09T02:39:37.312Z,0.00
2018-07-09T02:40:37.285Z,0.00
2018-07-09T02:41:37.229Z,0.00
2018-07-09T02:42:37.187Z,0.00
2018-07-09T02:43:37.140Z,0.00
2018-07-09T02:44:37.090Z,0.00
2018-07-09T02:45:37.038Z,0.00
2018-07-09T02:46:37.004Z,0.00
2018-07-09T02:47:36.977Z,0.00
2018-07-09T02:48:36.910Z,0.00
2018-07-09T02:49:36.877Z,0.00
2018-07-09T02:50:36.821Z,0.00
2018-07-09T02:51:36.765Z,0.00
2018-07-09T02:52:36.745Z,0.00
2018-07-09T02:53:36.701Z,0.00
2018-07-09T02:54:36.659Z,0.00
2018-07-09T02:55:36.582Z,0.00
2018-07-09T02:56:36.572Z,0.00
2018-07-09T02:57:36.504Z,0.00
2018-07-09T02:58:36.473Z,0.00
2018-07-09T02:59:36.394Z,0.00
2018-07-09T03:00:36.357Z,0.00
2018-07-09T03:01:36.317Z,0.00
2018-07-09T03:02:36.271Z,0.00
2018-07-09T03:03:36.217Z,0.00
2018-07-09T03:04:36.169Z,0.00
2018-07-09T03:05:36.120Z,0.00
2018-07-09T03:06:36.100Z,0.00
2018-07-09T03:07:36.056Z,0.00
2018-07-09T03:08:36.015Z,0.00
2018-07-09T03:09:35.938Z,0.00
2018-07-09T03:10:35.926Z,0.00
2018-07-09T03:11:35.852Z,0.00
2018-07-09T03:12:35.810Z,0.00
2018-07-09T03:13:35.757Z,0.00
2018-07-09T03:14:35.721Z,0.00
2018-07-09T03:15:35.665Z,0.00
2018-07-09T03:16:35.624Z,0.00
2018-07-09T03:17:35.580Z,0.00
2018-07-09T03:18:35.530Z,0.00
2018-07-09T03:19:35.512Z,0.00
2018-07-09T03:20:35.441Z,0.00
2018-07-09T03:21:35.391Z,0.00
2018-07-09T03:22:35.347Z,0.00
2018-07-09T03:23:35.330Z,0.00
2018-07-09T03:24:35.260Z,0.00
2018-07-09T03:25:35.213Z,0.00
2018-07-09T03:26:35.206Z,0.00
2018-07-09T03:27:35.147Z,0.00
2018-07-09T03:28:35.113Z,0.00
2018-07-09T03:29:35.029Z,0.00
2018-07-09T03:30:34.987Z,0.00
2018-07-09T03:31:34.950Z,0.00
2018-07-09T03:32:34.894Z,0.00
2018-07-09T03:33:34.848Z,0.00
2018-07-09T03:34:34.808Z,0.00
2018-07-09T03:35:34.781Z,0.00
2018-07-09T03:36:34.711Z,0.00
2018-07-09T03:37:34.674Z,0.00
2018-07-09T03:38:34.646Z,0.00
2018-07-09T03:39:34.569Z,0.00
2018-07-09T03:40:34.538Z,0.00
2018-07-09T03:41:34.503Z,0.00
2018-07-09T03:42:34.467Z,0.00
2018-07-09T03:43:34.423Z,0.00
2018-07-09T03:44:34.340Z,0.00
2018-07-09T03:45:34.312Z,0.00
2018-07-09T03:46:34.260Z,0.00
2018-07-09T03:47:34.210Z,0.00
2018-07-09T03:48:34.158Z,0.00
2018-07-09T03:49:34.112Z,0.00
2018-07-09T03:50:34.071Z,0.00
2018-07-09T03:51:34.027Z,0.00
2018-07-09T03:52:33.974Z,0.00
2018-07-09T03:53:33.963Z,0.00
2018-07-09T03:54:33.886Z,0.00
2018-07-09T03:55:33.867Z,0.00
2018-07-09T03:56:33.798Z,0.00
2018-07-09T03:57:33.770Z,0.00
2018-07-09T03:58:33.711Z,0.00
2018-07-09T03:59:33.687Z,0.00
2018-07-09T04:00:33.613Z,0.00
2018-07-09T04:01:33.571Z,0.00
2018-07-09T04:02:33.536Z,0.00
2018-07-09T04:03:33.500Z,0.00
2018-07-09T04:04:33.432Z,0.00
2018-07-09T04:05:33.377Z,0.00
2018-07-09T04:06:33.339Z,0.00
2018-07-09T04:07:33.304Z,0.00
2018-07-09T04:08:33.240Z,0.00
2018-07-09T04:09:33.198Z,0.00
2018-07-09T04:10:33.156Z,0.00
2018-07-09T04:11:33.130Z,0.00
2018-07-09T04:12:33.080Z,0.00
2018-07-09T04:13:33.031Z,0.00
2018-07-09T04:14:32.969Z,0.00
2018-07-09T04:15:32.945Z,0.00
2018-07-09T04:16:44.431Z,0.00
2018-07-09T04:17:44.464Z,0.00
2018-07-09T04:18:44.445Z,0.00
2018-07-09T04:19:44.399Z,0.00
2018-07-09T04:20:44.357Z,0.00
2018-07-09T04:21:44.283Z,0.00
2018-07-09T04:22:44.277Z,0.00
2018-07-09T04:23:44.209Z,0.00
2018-07-09T04:24:44.184Z,0.00
2018-07-09T04:25:44.105Z,0.00
2018-07-09T04:26:44.073Z,0.00
2018-07-09T04:27:44.012Z,0.00
2018-07-09T04:28:43.997Z,0.00
2018-07-09T04:29:43.927Z,0.00
2018-07-09T04:30:43.873Z,0.00
2018-07-09T04:31:43.837Z,0.00
2018-07-09T04:32:43.808Z,0.00
2018-07-09T04:33:43.746Z,0.00
2018-07-09T04:34:43.699Z,0.00
2018-07-09T04:35:43.645Z,0.00
2018-07-09T04:36:43.606Z,0.00
2018-07-09T04:37:43.628Z,0.00
2018-07-09T04:38:43.535Z,0.00
2018-07-09T04:39:43.469Z,0.00
2018-07-09T04:40:43.410Z,0.00
2018-07-09T04:41:43.370Z,0.00
2018-07-09T04:42:43.335Z,0.00
2018-07-09T04:43:43.314Z,0.00
2018-07-09T04:44:43.256Z,0.00
2018-07-09T04:45:43.184Z,0.00
2018-07-09T04:46:43.165Z,0.00
2018-07-09T04:47:43.122Z,0.00
2018-07-09T04:48:43.046Z,0.00
2018-07-09T04:49:43.009Z,0.00
2018-07-09T04:50:42.956Z,0.00
2018-07-09T04:51:42.914Z,0.00
2018-07-09T04:52:42.864Z,0.00
2018-07-09T04:53:42.843Z,0.00
2018-07-09T04:54:42.782Z,0.00
2018-07-09T04:55:42.733Z,0.00
2018-07-09T04:56:42.711Z,0.00
2018-07-09T04:57:42.650Z,0.00
2018-07-09T04:58:42.603Z,0.00
2018-07-09T04:59:42.543Z,0.00
2018-07-09T05:00:42.503Z,0.00
2018-07-09T05:01:42.454Z,0.00
2018-07-09T05:02:42.437Z,0.00
2018-07-09T05:03:42.377Z,0.00
2018-07-09T05:04:42.345Z,0.00
2018-07-09T05:05:42.366Z,0.00
2018-07-09T05:06:42.230Z,0.00
2018-07-09T05:07:42.189Z,0.00
2018-07-09T05:08:42.163Z,0.00
2018-07-09T05:09:42.105Z,0.00
2018-07-09T05:10:42.062Z,0.00
2018-07-09T05:11:42.008Z,0.00
2018-07-09T05:12:41.971Z,0.00
2018-07-09T05:13:41.933Z,0.00
2018-07-09T05:14:41.857Z,0.00
2018-07-09T05:15:41.822Z,0.00
2018-07-09T05:16:41.771Z,0.00
2018-07-09T05:17:41.738Z,0.00
2018-07-09T05:18:41.694Z,0.00
2018-07-09T05:19:41.631Z,0.00
2018-07-09T05:20:41.657Z,0.00
2018-07-09T05:21:41.552Z,0.00
2018-07-09T05:22:41.507Z,0.00
2018-07-09T05:23:41.488Z,0.00
2018-07-09T05:24:41.404Z,0.00
2018-07-09T05:25:41.368Z,0.00
2018-07-09T05:26:41.314Z,0.00
2018-07-09T05:27:41.282Z,0.00
2018-07-09T05:28:41.219Z,0.00
2018-07-09T05:29:41.187Z,0.00
2018-07-09T05:30:41.140Z,0.00
2018-07-09T05:31:41.122Z,0.00
2018-07-09T05:32:41.032Z,0.00
2018-07-09T05:33:41.008Z,0.00
2018-07-09T05:34:40.953Z,0.00
2018-07-09T05:35:40.901Z,0.00
2018-07-09T05:36:40.879Z,0.00
2018-07-09T05:37:40.814Z,0.00
2018-07-09T05:38:40.767Z,0.00
2018-07-09T05:39:40.744Z,0.00
2018-07-09T05:40:40.674Z,0.00
2018-07-09T05:41:40.623Z,0.00
2018-07-09T05:42:40.611Z,0.00
2018-07-09T05:43:40.560Z,0.00
2018-07-09T05:44:40.505Z,0.00
2018-07-09T05:45:40.440Z,0.00
2018-07-09T05:46:40.406Z,0.00
2018-07-09T05:47:40.355Z,0.00
2018-07-09T05:48:40.311Z,0.00
2018-07-09T05:49:40.272Z,0.00
2018-07-09T05:50:40.224Z,0.00
2018-07-09T05:51:40.191Z,0.00
2018-07-09T05:52:40.143Z,0.00
2018-07-09T05:53:40.080Z,0.00
2018-07-09T05:54:40.055Z,0.00
2018-07-09T05:55:39.989Z,0.00
2018-07-09T05:56:39.951Z,0.00
2018-07-09T05:57:39.907Z,0.00
2018-07-09T05:59:20.949Z,0.00
2018-07-09T06:00:20.841Z,0.00
2018-07-09T06:01:20.812Z,0.00
2018-07-09T06:02:20.753Z,0.00
2018-07-09T06:03:20.700Z,0.00
2018-07-09T06:04:20.683Z,0.00
2018-07-09T06:05:20.609Z,0.00
2018-07-09T06:06:20.564Z,0.00
2018-07-09T06:07:20.517Z,0.00
2018-07-09T06:08:20.502Z,0.00
2018-07-09T06:09:20.468Z,0.00
2018-07-09T06:10:20.392Z,0.00
2018-07-09T06:11:20.374Z,0.00
2018-07-09T06:12:20.292Z,0.00
2018-07-09T06:13:20.243Z,0.00
2018-07-09T06:14:20.203Z,0.00
2018-07-09T06:15:20.173Z,0.00
2018-07-09T06:16:20.104Z,0.00
2018-07-09T06:17:20.087Z,0.00
2018-07-09T06:18:20.044Z,0.00
2018-07-09T06:19:20.009Z,0.00
2018-07-09T06:20:19.932Z,0.00
2018-07-09T06:21:19.879Z,0.00
2018-07-09T06:22:19.829Z,0.00
2018-07-09T06:23:19.797Z,0.00
2018-07-09T06:24:19.733Z,0.00
2018-07-09T06:25:19.734Z,0.00
2018-07-09T06:26:19.685Z,0.00
2018-07-09T06:27:19.623Z,0.00
2018-07-09T06:28:19.581Z,0.00
2018-07-09T06:29:19.509Z,0.00
2018-07-09T06:30:19.463Z,0.00
2018-07-09T06:31:19.411Z,0.00
2018-07-09T06:32:19.369Z,0.00
2018-07-09T06:33:19.318Z,0.00
2018-07-09T06:34:19.287Z,0.00
2018-07-09T06:35:19.235Z,0.00
2018-07-09T06:36:19.194Z,0.00
2018-07-09T06:37:19.148Z,0.00
2018-07-09T06:38:19.087Z,0.00
2018-07-09T06:39:19.061Z,0.00
2018-07-09T06:40:19.020Z,0.00
2018-07-09T06:41:18.952Z,0.00
2018-07-09T06:42:18.932Z,0.00
2018-07-09T06:43:18.877Z,0.00
2018-07-09T06:44:18.828Z,0.00
2018-07-09T06:45:18.790Z,0.00
2018-07-09T06:46:18.745Z,0.00
2018-07-09T06:47:18.671Z,0.00
2018-07-09T06:48:18.704Z,0.00
2018-07-09T06:49:18.602Z,0.00
2018-07-09T06:50:18.561Z,0.00
2018-07-09T06:51:18.490Z,0.00
2018-07-09T06:52:18.459Z,0.00
2018-07-09T06:53:18.395Z,0.00
2018-07-09T06:54:18.352Z,0.00
2018-07-09T06:55:18.303Z,0.00
2018-07-09T06:56:18.263Z,0.00
2018-07-09T06:57:18.228Z,0.00
2018-07-09T06:58:18.200Z,0.00
2018-07-09T06:59:18.108Z,0.00
2018-07-09T07:00:18.090Z,0.00
2018-07-09T07:01:18.033Z,0.00
2018-07-09T07:02:18.044Z,0.00
2018-07-09T07:03:17.946Z,0.00
2018-07-09T07:04:17.892Z,0.00
2018-07-09T07:05:17.875Z,0.00
2018-07-09T07:06:17.791Z,0.00
2018-07-09T07:07:17.761Z,0.00
2018-07-09T07:08:17.736Z,0.00
2018-07-09T07:09:17.659Z,0.00
2018-07-09T07:10:17.629Z,0.00
2018-07-09T07:11:17.579Z,0.00
2018-07-09T07:12:17.515Z,0.00
2018-07-09T07:13:17.477Z,0.00
2018-07-09T07:14:17.480Z,0.00
2018-07-09T07:15:17.382Z,0.00
2018-07-09T07:16:17.325Z,0.00
2018-07-09T07:17:17.304Z,0.00
2018-07-09T07:18:17.262Z,0.00
2018-07-09T07:19:17.214Z,0.00
2018-07-09T07:20:17.153Z,0.00
2018-07-09T07:21:17.108Z,0.00
2018-07-09T07:22:17.067Z,0.00
2018-07-09T07:23:17.037Z,0.00
2018-07-09T07:24:16.948Z,0.00
2018-07-09T07:25:16.909Z,0.00
2018-07-09T07:26:16.897Z,0.00
2018-07-09T07:27:16.814Z,0.00
2018-07-09T07:28:16.767Z,0.00
2018-07-09T07:29:16.729Z,0.00
2018-07-09T07:30:16.686Z,0.00
2018-07-09T07:31:16.633Z,0.00
2018-07-09T07:32:16.591Z,0.00
2018-07-09T07:33:16.677Z,0.00
2018-07-09T07:34:16.497Z,0.00
2018-07-09T07:35:16.477Z,0.00
2018-07-09T07:36:16.432Z,0.00
2018-07-09T07:37:16.358Z,0.00
2018-07-09T07:38:16.327Z,0.00
2018-07-09T07:39:16.312Z,0.00
2018-07-09T07:40:16.239Z,0.00
2018-07-09T07:41:16.156Z,0.00
2018-07-09T07:42:16.137Z,0.00
2018-07-09T07:43:16.073Z,0.00
2018-07-09T07:44:16.031Z,0.00
2018-07-09T07:45:15.985Z,0.00
2018-07-09T07:46:15.940Z,0.00
2018-07-09T07:47:15.889Z,0.00
2018-07-09T07:48:15.872Z,0.00
2018-07-09T07:49:15.788Z,0.00
2018-07-09T07:50:15.868Z,0.00
2018-07-09T07:51:15.725Z,0.00
2018-07-09T07:52:15.670Z,0.00
2018-07-09T07:53:15.598Z,0.00
2018-07-09T07:54:15.578Z,0.00
2018-07-09T07:55:15.521Z,0.00
2018-07-09T07:56:15.474Z,0.00
2018-07-09T07:57:15.443Z,0.00
2018-07-09T07:58:15.369Z,0.00
2018-07-09T07:59:15.345Z,0.00
2018-07-09T08:00:15.288Z,0.00
2018-07-09T08:01:15.224Z,0.00
2018-07-09T08:02:15.186Z,0.00
2018-07-09T08:03:15.138Z,0.00
2018-07-09T08:04:15.096Z,0.00
2018-07-09T08:05:15.049Z,0.00
2018-07-09T08:06:15.016Z,0.00
2018-07-09T08:07:14.956Z,0.00
2018-07-09T08:08:14.908Z,0.00
2018-07-09T08:09:14.940Z,0.00
2018-07-09T08:10:14.841Z,0.00
2018-07-09T08:11:14.765Z,0.00
2018-07-09T08:13:00.534Z,0.00
2018-07-09T08:13:27.988Z,0.00
2018-07-09T08:14:14.638Z,0.00
2018-07-09T08:15:14.587Z,0.00
2018-07-09T08:16:14.563Z,0.00
2018-07-09T08:17:14.498Z,0.00
2018-07-09T08:18:14.455Z,0.00
2018-07-09T08:19:14.393Z,0.00
2018-07-09T08:20:14.356Z,0.00
2018-07-09T08:21:14.328Z,0.00
2018-07-09T08:22:14.285Z,0.00
2018-07-09T08:23:14.208Z,0.00
2018-07-09T08:24:14.169Z,0.00
2018-07-09T08:25:14.136Z,0.00
2018-07-09T08:26:14.076Z,0.00
2018-07-09T08:27:14.023Z,0.00
2018-07-09T08:28:13.989Z,0.00
2018-07-09T08:29:13.937Z,0.00
2018-07-09T08:30:13.885Z,0.00
2018-07-09T08:31:13.903Z,0.00
2018-07-09T08:32:13.792Z,0.00
2018-07-09T08:33:13.755Z,0.00
2018-07-09T08:34:13.707Z,0.00
2018-07-09T08:35:13.673Z,0.00
2018-07-09T08:36:13.620Z,0.00
2018-07-09T08:37:13.564Z,0.00
2018-07-09T08:38:13.523Z,0.00
2018-07-09T08:39:13.484Z,0.00
2018-07-09T08:40:13.447Z,0.00
2018-07-09T08:41:13.405Z,0.00
2018-07-09T08:42:13.348Z,0.00
2018-07-09T08:43:13.287Z,0.00
2018-07-09T08:44:13.266Z,0.00
2018-07-09T08:45:13.209Z,0.00
2018-07-09T08:46:13.143Z,0.00
2018-07-09T08:47:13.103Z,0.00
2018-07-09T08:48:13.084Z,0.00
2018-07-09T08:49:13.009Z,0.00
2018-07-09T08:50:12.983Z,0.00
2018-07-09T08:51:12.917Z,0.00
2018-07-09T08:52:12.872Z,0.00
2018-07-09T08:53:12.832Z,0.00
2018-07-09T08:54:12.803Z,0.00
2018-07-09T08:55:12.802Z,0.00
2018-07-09T08:56:12.687Z,0.00
2018-07-09T08:57:12.640Z,0.00
2018-07-09T08:58:12.594Z,0.00
2018-07-09T08:59:12.573Z,0.00
2018-07-09T09:00:12.496Z,0.00
2018-07-09T09:01:12.456Z,0.00
2018-07-09T09:02:12.437Z,0.00
2018-07-09T09:03:12.390Z,0.00
2018-07-09T09:04:12.333Z,0.00
2018-07-09T09:05:12.265Z,0.00
2018-07-09T09:06:12.224Z,0.00
2018-07-09T09:07:12.179Z,0.00
2018-07-09T09:08:12.131Z,0.00
2018-07-09T09:09:12.085Z,0.00
2018-07-09T09:10:12.163Z,0.00
2018-07-09T09:11:12.008Z,0.00
2018-07-09T09:12:11.957Z,0.00
2018-07-09T09:13:11.913Z,0.00
2018-07-09T09:14:11.864Z,0.00
2018-07-09T09:15:11.804Z,0.00
2018-07-09T09:16:11.759Z,0.00
2018-07-09T09:17:11.728Z,0.00
2018-07-09T09:18:11.682Z,0.00
2018-07-09T09:19:11.620Z,0.00
2018-07-09T09:20:11.573Z,0.00
2018-07-09T09:21:11.558Z,0.00
2018-07-09T09:22:11.518Z,0.00
2018-07-09T09:23:11.469Z,0.00
2018-07-09T09:24:11.390Z,0.00
2018-07-09T09:25:11.355Z,0.00
2018-07-09T09:26:11.326Z,0.00
2018-07-09T09:27:11.263Z,0.00
2018-07-09T09:28:11.222Z,0.00
2018-07-09T09:29:11.185Z,0.00
2018-07-09T09:30:11.145Z,0.00
2018-07-09T09:31:11.121Z,0.00
2018-07-09T09:32:11.022Z,0.00
2018-07-09T09:33:10.990Z,0.00
2018-07-09T09:34:10.944Z,0.00
2018-07-09T09:35:10.904Z,0.00
2018-07-09T09:36:10.842Z,0.00
2018-07-09T09:37:10.811Z,0.00
2018-07-09T09:38:10.750Z,0.00
2018-07-09T09:39:10.718Z,0.00
2018-07-09T09:40:10.706Z,0.00
2018-07-09T09:41:10.621Z,0.00
2018-07-09T09:42:10.580Z,0.00
2018-07-09T09:43:10.596Z,0.00
2018-07-09T09:44:10.491Z,0.00
2018-07-09T09:45:10.425Z,0.00
2018-07-09T09:46:10.375Z,0.00
2018-07-09T09:47:10.341Z,0.00
2018-07-09T09:48:10.285Z,0.00
2018-07-09T09:49:10.243Z,0.00
2018-07-09T09:50:10.227Z,0.00
2018-07-09T09:51:10.150Z,0.00
2018-07-09T09:52:10.126Z,0.00
2018-07-09T09:53:10.084Z,0.00
2018-07-09T09:54:10.038Z,0.00
2018-07-09T09:55:09.983Z,0.00
2018-07-09T09:56:09.916Z,0.00
2018-07-09T09:57:09.883Z,0.00
2018-07-09T09:58:09.846Z,0.00
2018-07-09T09:59:09.813Z,0.00
2018-07-09T10:00:09.751Z,0.00
2018-07-09T10:01:09.716Z,0.00
2018-07-09T10:02:09.655Z,0.00
2018-07-09T10:03:09.596Z,5.63
2018-07-09T10:04:09.548Z,5.63
2018-07-09T10:05:09.531Z,5.63
2018-07-09T10:06:09.491Z,5.63
2018-07-09T10:07:09.426Z,5.63
2018-07-09T10:08:09.377Z,5.63
2018-07-09T10:09:09.358Z,5.63
2018-07-09T10:10:09.286Z,5.63
2018-07-09T10:11:09.238Z,5.63
2018-07-09T10:12:09.214Z,5.63
2018-07-09T10:13:09.136Z,5.63
2018-07-09T10:14:09.108Z,5.63
2018-07-09T10:15:09.051Z,5.63
2018-07-09T10:16:09.013Z,5.63
2018-07-09T10:17:08.959Z,5.63
2018-07-09T10:18:08.931Z,5.63
2018-07-09T10:19:08.861Z,5.63
2018-07-09T10:20:08.828Z,5.63
2018-07-09T10:21:08.793Z,5.63
2018-07-09T10:22:08.727Z,5.63
2018-07-09T10:23:08.909Z,5.63
2018-07-09T10:24:08.637Z,11.25
2018-07-09T10:25:08.606Z,11.25
2018-07-09T10:26:08.525Z,11.25
2018-07-09T10:27:08.487Z,11.25
2018-07-09T10:28:08.451Z,11.25
2018-07-09T10:29:08.399Z,11.25
2018-07-09T10:30:08.353Z,11.25
2018-07-09T10:31:08.302Z,11.25
2018-07-09T10:32:08.275Z,11.25
2018-07-09T10:33:08.219Z,11.25
2018-07-09T10:34:08.174Z,11.25
2018-07-09T10:35:08.146Z,11.25
2018-07-09T10:36:08.112Z,11.25
2018-07-09T10:37:08.032Z,11.25
2018-07-09T10:38:08.009Z,11.25
2018-07-09T10:39:07.951Z,11.25
2018-07-09T10:40:07.900Z,11.25
2018-07-09T10:41:07.847Z,16.88
2018-07-09T10:42:07.794Z,16.88
2018-07-09T10:43:07.753Z,16.88
2018-07-09T10:44:07.708Z,16.88
2018-07-09T10:45:07.656Z,16.88
2018-07-09T10:46:07.629Z,16.88
2018-07-09T10:47:07.620Z,16.88
2018-07-09T10:48:07.544Z,16.88
2018-07-09T10:49:07.498Z,16.88
2018-07-09T10:50:07.446Z,16.88
2018-07-09T10:51:07.389Z,16.88
2018-07-09T10:52:07.360Z,16.88
2018-07-09T10:53:07.313Z,16.88
2018-07-09T10:54:07.279Z,16.88
2018-07-09T10:55:07.227Z,16.88
2018-07-09T10:56:07.156Z,16.88
2018-07-09T10:57:07.129Z,16.88
2018-07-09T10:58:07.058Z,16.88
2018-07-09T10:59:07.025Z,16.88
2018-07-09T11:00:06.982Z,16.88
2018-07-09T11:01:06.935Z,16.88
2018-07-09T11:02:06.899Z,16.88
2018-07-09T11:03:06.838Z,16.88
2018-07-09T11:04:06.793Z,16.88
2018-07-09T11:05:06.741Z,16.88
2018-07-09T11:06:06.701Z,16.88
2018-07-09T11:07:06.674Z,16.88
2018-07-09T11:08:06.615Z,16.88
2018-07-09T11:09:06.592Z,16.88
2018-07-09T11:10:06.549Z,16.88
2018-07-09T11:11:06.470Z,16.88
2018-07-09T11:12:06.419Z,16.88
2018-07-09T11:13:06.367Z,16.88
2018-07-09T11:14:06.338Z,22.50
2018-07-09T11:15:06.284Z,22.50
2018-07-09T11:16:06.244Z,22.50
2018-07-09T11:17:06.214Z,22.50
2018-07-09T11:18:06.156Z,16.88
2018-07-09T11:19:06.101Z,16.88
2018-07-09T11:20:06.061Z,22.50
2018-07-09T11:21:06.012Z,16.88
2018-07-09T11:22:05.962Z,22.50
2018-07-09T11:23:05.918Z,22.50
2018-07-09T11:24:05.872Z,22.50
2018-07-09T11:25:05.839Z,22.50
2018-07-09T11:26:05.783Z,22.50
2018-07-09T11:27:05.754Z,22.50
2018-07-09T11:28:05.673Z,22.50
2018-07-09T11:29:05.632Z,22.50
2018-07-09T11:30:05.612Z,22.50
2018-07-09T11:31:05.545Z,22.50
2018-07-09T11:32:05.518Z,22.50
2018-07-09T11:33:05.446Z,22.50
2018-07-09T11:34:05.426Z,22.50
2018-07-09T11:35:05.376Z,22.50
2018-07-09T11:36:05.339Z,22.50
2018-07-09T11:37:05.292Z,22.50
2018-07-09T11:38:05.235Z,28.13
2018-07-09T11:39:05.186Z,28.13
2018-07-09T11:40:05.136Z,28.13
2018-07-09T11:41:05.077Z,33.75
2018-07-09T11:42:05.090Z,33.75
2018-07-09T11:43:05.014Z,28.13
2018-07-09T11:44:04.959Z,33.75
2018-07-09T11:45:04.898Z,33.75
2018-07-09T11:46:04.874Z,33.75
2018-07-09T11:47:04.812Z,33.75
2018-07-09T11:48:04.785Z,33.75
2018-07-09T11:49:04.710Z,33.75
2018-07-09T11:50:04.665Z,39.38
2018-07-09T11:51:04.626Z,39.38
2018-07-09T11:52:04.621Z,39.38
2018-07-09T11:53:04.530Z,39.38
2018-07-09T11:54:04.479Z,39.38
2018-07-09T11:55:04.438Z,45.00
2018-07-09T11:56:04.441Z,45.00
2018-07-09T11:57:04.338Z,45.00
2018-07-09T11:58:04.309Z,45.00
2018-07-09T11:59:04.264Z,45.00
2018-07-09T12:00:04.221Z,45.00
2018-07-09T12:01:04.199Z,45.00
2018-07-09T12:02:04.128Z,45.00
2018-07-09T12:03:04.070Z,39.38
2018-07-09T12:04:04.020Z,39.38
2018-07-09T12:05:03.992Z,45.00
2018-07-09T12:06:03.929Z,45.00
2018-07-09T12:07:03.902Z,50.63
2018-07-09T12:08:03.840Z,45.00
2018-07-09T12:09:03.810Z,50.63
2018-07-09T12:10:03.746Z,56.25
2018-07-09T12:11:03.729Z,56.25
2018-07-09T12:12:03.664Z,61.88
2018-07-09T12:13:03.613Z,73.13
2018-07-09T12:14:03.588Z,78.75
2018-07-09T12:15:03.530Z,90.00
2018-07-09T12:16:03.500Z,106.88
2018-07-09T12:17:03.423Z,112.50
2018-07-09T12:18:03.415Z,101.25
2018-07-09T12:19:03.334Z,95.63
2018-07-09T12:20:03.306Z,95.63
2018-07-09T12:21:03.253Z,95.63
2018-07-09T12:22:03.202Z,90.00
2018-07-09T12:23:03.161Z,95.63
2018-07-09T12:24:03.135Z,95.63
2018-07-09T12:25:03.079Z,95.63
2018-07-09T12:26:03.014Z,95.63
2018-07-09T12:27:02.998Z,101.25
2018-07-09T12:28:02.943Z,101.25
2018-07-09T12:29:02.984Z,101.25
2018-07-09T12:30:02.839Z,101.25
2018-07-09T12:31:02.793Z,101.25
2018-07-09T12:32:02.747Z,101.25
2018-07-09T12:33:02.726Z,106.88
2018-07-09T12:34:02.664Z,106.88
2018-07-09T12:35:02.621Z,112.50
2018-07-09T12:36:02.607Z,123.75
2018-07-09T12:37:02.548Z,123.75
2018-07-09T12:38:02.513Z,129.38
2018-07-09T12:39:02.430Z,123.75
2018-07-09T12:40:02.385Z,123.75
2018-07-09T12:41:02.355Z,123.75
2018-07-09T12:42:02.305Z,123.75
2018-07-09T12:43:02.250Z,123.75
2018-07-09T12:44:02.212Z,123.75
2018-07-09T12:45:02.180Z,118.13
2018-07-09T12:46:02.112Z,118.13
2018-07-09T12:47:02.075Z,112.50
2018-07-09T12:48:02.049Z,112.50
2018-07-09T12:49:02.001Z,112.50
2018-07-09T12:50:01.955Z,123.75
2018-07-09T12:51:01.890Z,135.00
2018-07-09T12:52:01.850Z,146.25
2018-07-09T12:53:01.822Z,151.88
2018-07-09T12:54:01.765Z,151.88
2018-07-09T12:55:01.706Z,151.88
2018-07-09T12:56:01.666Z,151.88
2018-07-09T12:57:01.645Z,151.88
2018-07-09T12:58:01.589Z,146.25
2018-07-09T12:59:01.533Z,146.25
2018-07-09T13:00:01.491Z,146.25
2018-07-09T13:01:01.438Z,146.25
2018-07-09T13:02:01.401Z,140.63
2018-07-09T13:03:01.340Z,140.63
2018-07-09T13:04:01.305Z,140.63
2018-07-09T13:05:01.270Z,140.63
2018-07-09T13:06:01.251Z,140.63
2018-07-09T13:07:01.237Z,140.63
2018-07-09T13:08:01.151Z,140.63
2018-07-09T13:09:01.090Z,135.00
2018-07-09T13:10:01.055Z,135.00
2018-07-09T13:11:00.986Z,135.00
2018-07-09T13:12:00.983Z,135.00